Accueil
METAR-TAF:

METAR-TAF

Aéroports :

Aéroport de Carcassonne Salvaza

Carcassonne, France

latitude: 43-13N, longitude: 002-19E, altitude: 130 m

Observation

Le bulletin a été fait il y a 44 minutes, à 14:00 UTC
Vent 11 kt de ouest, variant entre ouest/sud-ouest et nord-ouest
Température 29°C
Humidité 31%
Pression 1021 hPa
Visibilité 10 km ou plus
pas de nuages en-dessous de 1500 mètres et pas de cumulonimbus.

METAR: LFMK 221400Z AUTO 28011KT 250V320 CAVOK 29/10 Q1021 NOSIG

Heure: 16:44 (14:44 UTC)

Prévision

Le bulletin a été fait il y a 6 heures et 44 minutes, à 08:00 UTC
Prévision valable du 22 à 09 UTC au 23 à 09 UTC
Vent 10 kt de ouest
Visibilité 10 km ou plus
pas de nuages en-dessous de 1500 mètres et pas de cumulonimbus.
Evoluant progressivement
du 22 à 17 UTC au 22 à 20 UTC
Vent 5 kt de direction variable

TAF: LFMK 220800Z 2209/2309 26010KT CAVOK BECMG 2217/2220 VRB05KT

Observations et prévisions météorologiques de plus de 4000 aéroports (messages METAR et TAF).

Les stations disponibles sont représentées par des disques jaunes et rouges sur la carte.

Passer la souris dessus pour voir le nom de la station.

Cliquer dessus pour voir les observations et prévisions météorologiques.

Pour changer de carte: cliquez sur les boutons verts avec une croix noire pour zoomer, sur le bouton vert avec un tiret pour effectuer un zoom arrière, ou sur les flèches vertes pour les cartes adjacentes.


METAR-TAF: